Golden Triangle Regional Air, Mississippi
Current Conditions -  °F | °C
As of 8:55 PM on Friday 19 Dec 2014 (Local Time) from KGTR Reporting Station
Overcast Overcast  
Wind Chill: 38°   Ceiling: 6000
Heat Index: 43°   Visibility: 10mi
Dew Point: 39°   Wind: 8mph
Humidity: 87%   Direction: 340°NNW
Pressure: 30.19"   Gusts: NA
Location:  33.455°N, 88.5512°W
Report Text: KGTR 200255Z 34007KT 10SM BKN060 OVC085 06/04 A3019 RMK AO1 60001 54000
Loading
Personal Weather Stations






























Interactive Weather Map New forecast layout! Learn more

10-Day Weather Forecast

Advertisements
Track Severe Weather on mobile